createdAt,value
2018-03-21T00:00:17.514Z,34.03
2018-03-21T00:02:45.552Z,34.65
2018-03-21T00:05:13.633Z,35.60
2018-03-21T00:07:41.659Z,35.63
2018-03-21T00:10:09.769Z,36.28
2018-03-21T00:12:37.796Z,36.80
2018-03-21T00:15:05.859Z,36.67
2018-03-21T00:17:34.229Z,37.33
2018-03-21T00:20:02.279Z,37.55
2018-03-21T00:22:30.320Z,39.33
2018-03-21T00:24:58.362Z,38.88
2018-03-21T00:27:26.391Z,40.20
2018-03-21T00:29:54.477Z,40.90
2018-03-21T00:32:22.524Z,40.97
2018-03-21T00:34:50.574Z,39.05
2018-03-21T00:37:18.615Z,42.30
2018-03-21T00:39:46.848Z,42.33
2018-03-21T00:42:14.937Z,43.83
2018-03-21T00:44:42.974Z,48.97
2018-03-21T00:47:11.018Z,48.92
2018-03-21T00:49:39.102Z,47.25
2018-03-21T00:52:07.130Z,44.88
2018-03-21T00:54:35.204Z,45.63
2018-03-21T00:57:03.236Z,42.13
2018-03-21T00:59:31.286Z,40.65
2018-03-21T01:01:59.320Z,40.00
2018-03-21T01:04:27.382Z,41.95
2018-03-21T01:06:55.462Z,41.60
2018-03-21T01:09:23.529Z,42.40
2018-03-21T01:11:51.567Z,47.05
2018-03-21T01:14:19.636Z,44.05
2018-03-21T01:16:54.085Z,40.53
2018-03-21T01:19:24.466Z,43.17
2018-03-21T01:21:58.722Z,43.87
2018-03-21T01:24:28.679Z,44.25
2018-03-21T01:26:59.926Z,46.42
2018-03-21T01:29:28.957Z,44.85
2018-03-21T01:32:02.487Z,45.45
2018-03-21T01:34:36.000Z,46.45
2018-03-21T01:37:14.777Z,45.97
2018-03-21T01:39:45.740Z,53.70
2018-03-21T01:42:13.779Z,50.55
2018-03-21T01:44:42.665Z,51.08
2018-03-21T01:47:10.713Z,50.12
2018-03-21T01:49:38.767Z,45.75
2018-03-21T01:52:06.845Z,46.70
2018-03-21T01:54:34.875Z,43.60
2018-03-21T01:57:02.918Z,42.92
2018-03-21T01:59:30.935Z,42.88
2018-03-21T02:01:59.771Z,44.50
2018-03-21T02:04:27.830Z,43.47
2018-03-21T02:06:55.896Z,43.05
2018-03-21T02:09:24.700Z,46.80
2018-03-21T02:11:52.747Z,46.05
2018-03-21T02:14:20.787Z,44.97
2018-03-21T02:16:48.856Z,45.55
2018-03-21T02:19:16.910Z,46.95
2018-03-21T02:21:45.142Z,44.58
2018-03-21T02:24:14.703Z,47.60
2018-03-21T02:26:42.794Z,47.65
2018-03-21T02:29:10.881Z,51.03
2018-03-21T02:31:38.920Z,49.67
2018-03-21T02:34:07.012Z,48.38
2018-03-21T02:36:35.077Z,47.65
2018-03-21T02:39:03.171Z,47.33
2018-03-21T02:41:31.234Z,43.50
2018-03-21T02:43:59.280Z,44.85
2018-03-21T02:46:27.333Z,42.03
2018-03-21T02:48:55.386Z,43.25
2018-03-21T02:51:23.484Z,43.30
2018-03-21T02:53:51.530Z,43.25
2018-03-21T02:56:19.589Z,44.25
2018-03-21T02:58:47.662Z,44.45
2018-03-21T03:01:15.779Z,44.80
2018-03-21T03:03:43.866Z,44.47
2018-03-21T03:06:11.916Z,45.65
2018-03-21T03:08:39.974Z,44.13
2018-03-21T03:11:08.031Z,44.92
2018-03-21T03:13:36.085Z,47.00
2018-03-21T03:16:04.186Z,45.83
2018-03-21T03:18:32.247Z,47.60
2018-03-21T03:21:00.269Z,46.78
2018-03-21T03:23:28.313Z,46.57
2018-03-21T03:25:56.350Z,46.25
2018-03-21T03:28:24.586Z,48.47
2018-03-21T03:30:52.617Z,48.25
2018-03-21T03:33:20.676Z,46.65
2018-03-21T03:35:50.216Z,45.70
2018-03-21T03:38:18.256Z,47.22
2018-03-21T03:40:46.319Z,45.45
2018-03-21T03:43:15.108Z,45.45
2018-03-21T03:45:43.146Z,42.17
2018-03-21T03:48:11.175Z,43.95
2018-03-21T03:50:39.226Z,43.72
2018-03-21T03:53:07.292Z,41.13
2018-03-21T03:55:35.347Z,43.90
2018-03-21T03:58:03.392Z,43.73
2018-03-21T04:00:31.440Z,44.70
2018-03-21T04:02:59.736Z,44.17
2018-03-21T04:05:27.818Z,44.03
2018-03-21T04:07:55.956Z,43.97
2018-03-21T04:10:24.002Z,44.53
2018-03-21T04:12:53.554Z,45.60
2018-03-21T04:15:21.610Z,45.03
2018-03-21T04:17:49.690Z,46.43
2018-03-21T04:20:17.737Z,55.03
2018-03-21T04:22:45.779Z,48.13
2018-03-21T04:25:13.818Z,44.80
2018-03-21T04:27:41.867Z,39.90
2018-03-21T04:30:10.738Z,22.97
2018-03-21T04:32:40.446Z,18.83
2018-03-21T04:35:10.058Z,20.02
2018-03-21T04:37:39.643Z,18.73
2018-03-21T04:40:09.230Z,18.75
2018-03-21T04:42:37.221Z,18.25
2018-03-21T04:45:05.303Z,17.87
2018-03-21T04:47:33.333Z,16.87
2018-03-21T04:50:01.389Z,18.40
2018-03-21T04:52:30.190Z,17.48
2018-03-21T04:54:58.273Z,18.02
2018-03-21T04:57:26.313Z,15.32
2018-03-21T04:59:54.334Z,17.23
2018-03-21T05:02:22.399Z,16.65
2018-03-21T05:04:50.459Z,18.08
2018-03-21T05:07:18.537Z,16.92
2018-03-21T05:09:46.579Z,16.20
2018-03-21T05:12:14.620Z,16.35
2018-03-21T05:14:42.644Z,9.52
2018-03-21T05:17:10.675Z,9.80
2018-03-21T05:19:39.508Z,9.95
2018-03-21T05:22:07.549Z,10.15
2018-03-21T05:24:35.615Z,10.48
2018-03-21T05:27:03.673Z,10.63
2018-03-21T05:29:31.741Z,10.18
2018-03-21T05:32:01.319Z,9.57
2018-03-21T05:34:29.384Z,9.98
2018-03-21T05:36:57.437Z,9.85
2018-03-21T05:39:25.452Z,9.55
2018-03-21T05:41:53.495Z,9.95
2018-03-21T05:44:21.548Z,10.23
2018-03-21T05:46:49.598Z,9.63
2018-03-21T05:49:18.398Z,9.02
2018-03-21T05:51:47.449Z,8.98
2018-03-21T05:54:15.489Z,8.70
2018-03-21T05:56:43.572Z,9.38
2018-03-21T05:59:11.600Z,9.05
2018-03-21T06:01:39.676Z,8.95
2018-03-21T06:04:08.485Z,9.25
2018-03-21T06:06:36.510Z,9.18
2018-03-21T06:09:04.577Z,9.32
2018-03-21T06:11:32.596Z,8.70
2018-03-21T06:14:00.646Z,8.10
2018-03-21T06:16:28.703Z,8.85
2018-03-21T06:18:56.742Z,8.32
2018-03-21T06:21:24.824Z,8.95
2018-03-21T06:23:52.921Z,8.50
2018-03-21T06:26:20.967Z,8.65
2018-03-21T06:28:48.992Z,8.27
2018-03-21T06:31:17.050Z,8.02
2018-03-21T06:33:45.152Z,8.98
2018-03-21T06:36:13.240Z,8.63
2018-03-21T06:38:41.271Z,8.77
2018-03-21T06:41:09.305Z,9.15
2018-03-21T06:43:37.341Z,9.15
2018-03-21T06:46:05.393Z,8.82
2018-03-21T06:48:34.181Z,9.40
2018-03-21T06:51:02.256Z,9.48
2018-03-21T06:53:30.274Z,9.98
2018-03-21T06:55:58.327Z,9.57
2018-03-21T06:58:26.385Z,8.90
2018-03-21T07:00:54.562Z,9.07
2018-03-21T07:03:23.018Z,9.52
2018-03-21T07:05:51.062Z,9.15
2018-03-21T07:08:20.752Z,9.02
2018-03-21T07:10:50.396Z,8.98
2018-03-21T07:13:20.020Z,9.13
2018-03-21T07:15:48.090Z,9.23
2018-03-21T07:18:16.196Z,8.80
2018-03-21T07:20:44.243Z,8.57
2018-03-21T07:23:12.430Z,7.85
2018-03-21T07:25:40.448Z,8.63
2018-03-21T07:28:08.513Z,8.55
2018-03-21T07:30:36.584Z,8.10
2018-03-21T07:33:04.619Z,7.97
2018-03-21T07:35:32.737Z,8.20
2018-03-21T07:38:00.787Z,8.05
2018-03-21T07:40:28.839Z,7.00
2018-03-21T07:42:56.886Z,7.80
2018-03-21T07:45:24.946Z,7.97
2018-03-21T07:47:53.005Z,8.23
2018-03-21T07:50:21.062Z,8.10
2018-03-21T07:52:49.104Z,8.50
2018-03-21T07:55:17.144Z,7.47
2018-03-21T07:57:45.204Z,7.37
2018-03-21T08:00:13.275Z,7.60
2018-03-21T08:02:41.318Z,7.25
2018-03-21T08:05:09.369Z,8.20
2018-03-21T08:07:37.435Z,7.65
2018-03-21T08:10:05.480Z,8.18
2018-03-21T08:12:33.552Z,7.60
2018-03-21T08:15:01.597Z,7.25
2018-03-21T08:17:29.746Z,7.78
2018-03-21T08:19:57.974Z,7.28
2018-03-21T08:22:26.098Z,7.12
2018-03-21T08:24:54.162Z,7.45
2018-03-21T08:27:22.242Z,7.37
2018-03-21T08:29:50.316Z,7.37
2018-03-21T08:32:18.375Z,7.65
2018-03-21T08:34:46.431Z,7.50
2018-03-21T08:37:14.485Z,6.95
2018-03-21T08:39:42.548Z,7.00
2018-03-21T08:42:10.644Z,7.05
2018-03-21T08:44:38.708Z,6.93
2018-03-21T08:47:06.756Z,6.97
2018-03-21T08:49:34.833Z,6.72
2018-03-21T08:52:02.908Z,6.50
2018-03-21T08:54:31.008Z,7.20
2018-03-21T08:56:59.067Z,6.30
2018-03-21T08:59:27.126Z,7.62
2018-03-21T09:01:55.183Z,8.35
2018-03-21T09:04:23.281Z,7.57
2018-03-21T09:06:51.366Z,6.78
2018-03-21T09:09:19.421Z,7.12
2018-03-21T09:11:47.487Z,7.10
2018-03-21T09:14:15.535Z,7.00
2018-03-21T09:16:43.607Z,5.28
2018-03-21T09:19:11.683Z,5.12
2018-03-21T09:21:41.245Z,5.95
2018-03-21T09:24:09.309Z,6.70
2018-03-21T09:26:37.367Z,6.40
2018-03-21T09:29:05.421Z,3.72
2018-03-21T09:31:35.138Z,5.35
2018-03-21T09:34:04.647Z,6.28
2018-03-21T09:36:32.705Z,5.55
2018-03-21T09:39:00.768Z,4.78
2018-03-21T09:41:30.319Z,5.45
2018-03-21T09:43:58.383Z,5.97
2018-03-21T09:46:26.461Z,6.12
2018-03-21T09:48:54.539Z,5.72
2018-03-21T09:51:22.591Z,5.28
2018-03-21T09:53:50.862Z,5.97
2018-03-21T09:56:18.987Z,5.90
2018-03-21T09:58:47.088Z,6.10
2018-03-21T10:01:15.171Z,5.80
2018-03-21T10:03:44.009Z,6.10
2018-03-21T10:06:12.102Z,7.05
2018-03-21T10:08:40.162Z,8.23
2018-03-21T10:11:08.235Z,7.80
2018-03-21T10:13:36.296Z,8.70
2018-03-21T10:16:04.418Z,8.45
2018-03-21T10:18:32.469Z,8.60
2018-03-21T10:21:00.540Z,8.88
2018-03-21T10:23:28.601Z,6.95
2018-03-21T10:25:56.673Z,7.05
2018-03-21T10:28:24.721Z,6.93
2018-03-21T10:30:52.789Z,7.05
2018-03-21T10:33:20.867Z,7.40
2018-03-21T10:35:49.031Z,7.30
2018-03-21T10:38:17.851Z,7.62
2018-03-21T10:40:45.931Z,7.05
2018-03-21T10:43:13.979Z,7.03
2018-03-21T10:45:42.313Z,6.50
2018-03-21T10:48:10.357Z,6.55
2018-03-21T10:50:38.395Z,6.10
2018-03-21T10:53:06.415Z,7.10
2018-03-21T10:55:34.467Z,6.35
2018-03-21T10:58:02.547Z,3.85
2018-03-21T11:00:30.585Z,3.90
2018-03-21T11:03:02.445Z,4.45
2018-03-21T11:05:30.498Z,4.78
2018-03-21T11:07:58.526Z,4.10
2018-03-21T11:10:26.570Z,4.93
2018-03-21T11:12:54.613Z,4.95
2018-03-21T11:15:22.662Z,5.55
2018-03-21T11:17:50.705Z,5.82
2018-03-21T11:20:18.762Z,6.45
2018-03-21T11:22:46.801Z,6.78
2018-03-21T11:25:14.899Z,6.45
2018-03-21T11:27:42.950Z,6.82
2018-03-21T11:30:10.984Z,7.28
2018-03-21T11:32:39.030Z,7.50
2018-03-21T11:35:07.084Z,7.50
2018-03-21T11:37:35.146Z,8.13
2018-03-21T11:40:03.230Z,10.57
2018-03-21T11:42:31.296Z,9.07
2018-03-21T11:44:59.397Z,9.57
2018-03-21T11:47:27.513Z,9.35
2018-03-21T11:49:55.630Z,9.43
2018-03-21T11:52:23.707Z,8.90
2018-03-21T11:54:51.821Z,9.75
2018-03-21T11:57:21.084Z,9.25
2018-03-21T11:59:49.196Z,10.55
2018-03-21T12:02:17.330Z,9.63
2018-03-21T12:04:45.654Z,10.18
2018-03-21T12:07:13.705Z,9.55
2018-03-21T12:09:43.281Z,9.27
2018-03-21T12:12:11.342Z,10.45
2018-03-21T12:14:39.413Z,9.73
2018-03-21T12:17:07.490Z,9.80
2018-03-21T12:19:35.553Z,9.73
2018-03-21T12:22:03.609Z,9.18
2018-03-21T12:24:31.689Z,9.18
2018-03-21T12:26:59.745Z,8.75
2018-03-21T12:29:27.815Z,9.60
2018-03-21T12:31:55.884Z,9.32
2018-03-21T12:34:23.943Z,8.80
2018-03-21T12:36:52.009Z,8.35
2018-03-21T12:39:20.086Z,8.82
2018-03-21T12:41:48.167Z,9.02
2018-03-21T12:44:16.241Z,7.65
2018-03-21T12:46:44.285Z,7.78
2018-03-21T12:49:12.366Z,8.00
2018-03-21T12:51:40.443Z,8.18
2018-03-21T12:54:08.505Z,8.25
2018-03-21T12:56:36.556Z,5.60
2018-03-21T12:59:04.612Z,6.05
2018-03-21T13:01:32.729Z,6.43
2018-03-21T13:04:00.793Z,7.00
2018-03-21T13:06:28.876Z,7.70
2018-03-21T13:08:56.989Z,7.15
2018-03-21T13:11:25.799Z,7.50
2018-03-21T13:13:53.873Z,7.72
2018-03-21T13:16:23.484Z,7.18
2018-03-21T13:18:51.919Z,7.30
2018-03-21T13:21:19.985Z,6.70
2018-03-21T13:23:48.013Z,6.43
2018-03-21T13:26:16.117Z,7.10
2018-03-21T13:28:45.677Z,7.07
2018-03-21T13:31:13.754Z,6.85
2018-03-21T13:33:41.810Z,7.30
2018-03-21T13:36:09.844Z,7.10
2018-03-21T13:38:37.917Z,7.15
2018-03-21T13:41:06.003Z,7.07
2018-03-21T13:43:34.074Z,7.37
2018-03-21T13:46:02.878Z,7.53
2018-03-21T13:48:30.925Z,6.53
2018-03-21T13:50:59.764Z,7.00
2018-03-21T13:53:27.805Z,7.53
2018-03-21T13:55:55.888Z,6.97
2018-03-21T13:58:23.938Z,6.97
2018-03-21T14:00:51.998Z,6.18
2018-03-21T14:03:20.058Z,6.75
2018-03-21T14:05:48.109Z,6.22
2018-03-21T14:08:16.165Z,6.20
2018-03-21T14:10:44.242Z,7.62
2018-03-21T14:13:12.291Z,7.05
2018-03-21T14:15:40.353Z,6.78
2018-03-21T14:18:08.414Z,7.32
2018-03-21T14:20:36.501Z,7.10
2018-03-21T14:23:05.308Z,7.40
2018-03-21T14:25:33.377Z,7.43
2018-03-21T14:28:01.406Z,6.87
2018-03-21T14:30:29.457Z,7.25
2018-03-21T14:32:57.515Z,7.62
2018-03-21T14:35:25.573Z,7.30
2018-03-21T14:37:53.627Z,7.32
2018-03-21T14:40:21.784Z,7.07
2018-03-21T14:42:49.837Z,7.05
2018-03-21T14:45:17.915Z,7.25
2018-03-21T14:47:45.983Z,7.10
2018-03-21T14:50:14.046Z,7.53
2018-03-21T14:52:42.097Z,6.68
2018-03-21T14:55:10.121Z,7.35
2018-03-21T14:57:38.240Z,7.10
2018-03-21T15:00:06.271Z,7.30
2018-03-21T15:02:34.345Z,7.57
2018-03-21T15:05:03.169Z,6.97
2018-03-21T15:07:31.210Z,7.22
2018-03-21T15:09:59.320Z,7.20
2018-03-21T15:12:27.384Z,8.73
2018-03-21T15:14:55.451Z,6.93
2018-03-21T15:17:23.500Z,6.82
2018-03-21T15:19:51.555Z,6.85
2018-03-21T15:22:21.108Z,7.43
2018-03-21T15:24:49.180Z,8.00
2018-03-21T15:27:17.264Z,7.37
2018-03-21T15:29:45.606Z,7.25
2018-03-21T15:32:13.738Z,7.28
2018-03-21T15:34:41.832Z,7.05
2018-03-21T15:37:09.896Z,7.00
2018-03-21T15:39:37.954Z,6.80
2018-03-21T15:42:06.736Z,7.30
2018-03-21T15:44:34.783Z,6.87
2018-03-21T15:47:02.871Z,7.15
2018-03-21T15:49:30.983Z,7.18
2018-03-21T15:51:59.102Z,6.75
2018-03-21T15:54:27.154Z,6.72
2018-03-21T15:56:55.215Z,7.15
2018-03-21T15:59:24.049Z,6.90
2018-03-21T16:01:52.115Z,6.57
2018-03-21T16:04:20.174Z,7.18
2018-03-21T16:06:48.225Z,7.12
2018-03-21T16:09:16.300Z,6.68
2018-03-21T16:11:44.359Z,6.82
2018-03-21T16:14:12.387Z,6.47
2018-03-21T16:16:40.451Z,6.93
2018-03-21T16:19:08.502Z,6.72
2018-03-21T16:21:36.536Z,7.03
2018-03-21T16:24:04.578Z,6.97
2018-03-21T16:26:32.611Z,7.40
2018-03-21T16:29:00.693Z,7.30
2018-03-21T16:31:28.747Z,7.30
2018-03-21T16:33:56.765Z,7.43
2018-03-21T16:36:24.880Z,6.95
2018-03-21T16:38:52.929Z,7.35
2018-03-21T16:41:21.004Z,7.75
2018-03-21T16:43:50.575Z,7.20
2018-03-21T16:46:18.625Z,6.93
2018-03-21T16:48:46.679Z,7.68
2018-03-21T16:51:14.725Z,6.18
2018-03-21T16:53:42.957Z,6.65
2018-03-21T16:56:11.014Z,6.75
2018-03-21T16:58:39.088Z,6.47
2018-03-21T17:01:07.147Z,6.68
2018-03-21T17:03:35.945Z,7.00
2018-03-21T17:06:03.984Z,7.25
2018-03-21T17:08:32.062Z,7.53
2018-03-21T17:11:01.622Z,7.45
2018-03-21T17:13:29.630Z,7.10
2018-03-21T17:15:57.701Z,6.87
2018-03-21T17:18:25.759Z,7.03
2018-03-21T17:20:53.815Z,7.28
2018-03-21T17:23:21.908Z,7.35
2018-03-21T17:25:49.967Z,7.15
2018-03-21T17:28:18.028Z,7.45
2018-03-21T17:30:46.092Z,7.30
2018-03-21T17:33:14.144Z,6.72
2018-03-21T17:35:42.206Z,7.43
2018-03-21T17:38:11.034Z,7.43
2018-03-21T17:40:39.128Z,7.62
2018-03-21T17:43:07.193Z,7.10
2018-03-21T17:45:35.698Z,7.25
2018-03-21T17:48:03.757Z,7.30
2018-03-21T17:50:31.792Z,6.60
2018-03-21T17:52:59.875Z,7.03
2018-03-21T17:55:27.963Z,7.78
2018-03-21T17:57:56.164Z,7.32
2018-03-21T18:00:24.151Z,7.50
2018-03-21T18:02:52.975Z,7.72
2018-03-21T18:05:21.017Z,7.68
2018-03-21T18:07:49.086Z,7.82
2018-03-21T18:10:17.138Z,7.90
2018-03-21T18:12:45.180Z,7.57
2018-03-21T18:15:13.267Z,7.68
2018-03-21T18:17:41.356Z,7.55
2018-03-21T18:20:09.429Z,7.70
2018-03-21T18:22:37.474Z,7.35
2018-03-21T18:25:05.547Z,8.00
2018-03-21T18:27:33.566Z,7.75
2018-03-21T18:30:03.149Z,8.27
2018-03-21T18:32:31.223Z,8.50
2018-03-21T18:34:59.262Z,5.50
2018-03-21T18:37:27.333Z,6.40
2018-03-21T18:39:55.377Z,7.00
2018-03-21T18:42:23.543Z,7.37
2018-03-21T18:44:51.690Z,7.90
2018-03-21T18:47:19.774Z,8.05
2018-03-21T18:49:48.595Z,8.20
2018-03-21T18:52:16.680Z,8.00
2018-03-21T18:54:44.766Z,8.13
2018-03-21T18:57:12.815Z,8.52
2018-03-21T18:59:40.887Z,8.23
2018-03-21T19:02:08.962Z,8.73
2018-03-21T19:04:37.060Z,7.93
2018-03-21T19:07:05.137Z,8.27
2018-03-21T19:09:33.180Z,7.97
2018-03-21T19:12:01.443Z,8.63
2018-03-21T19:14:29.498Z,7.70
2018-03-21T19:16:57.623Z,7.35
2018-03-21T19:19:25.660Z,8.23
2018-03-21T19:21:53.736Z,8.50
2018-03-21T19:24:21.792Z,8.60
2018-03-21T19:26:49.870Z,8.10
2018-03-21T19:29:18.006Z,8.40
2018-03-21T19:31:46.066Z,8.48
2018-03-21T19:34:14.144Z,8.30
2018-03-21T19:36:42.186Z,8.05
2018-03-21T19:39:10.253Z,8.38
2018-03-21T19:41:38.308Z,7.40
2018-03-21T19:44:06.381Z,7.40
2018-03-21T19:46:34.455Z,7.93
2018-03-21T19:49:02.511Z,7.15
2018-03-21T19:51:30.608Z,7.55
2018-03-21T19:53:59.016Z,7.40
2018-03-21T19:56:27.320Z,7.72
2018-03-21T19:58:55.392Z,7.93
2018-03-21T20:01:23.475Z,7.80
2018-03-21T20:03:51.561Z,8.30
2018-03-21T20:06:19.617Z,8.02
2018-03-21T20:08:47.698Z,8.57
2018-03-21T20:11:15.809Z,8.38
2018-03-21T20:13:43.897Z,8.80
2018-03-21T20:16:12.727Z,8.38
2018-03-21T20:18:40.823Z,8.38
2018-03-21T20:21:09.139Z,8.40
2018-03-21T20:23:37.185Z,8.82
2018-03-21T20:26:05.253Z,8.93
2018-03-21T20:28:33.313Z,9.15
2018-03-21T20:31:01.432Z,8.20
2018-03-21T20:33:29.471Z,8.20
2018-03-21T20:35:57.543Z,8.85
2018-03-21T20:38:26.522Z,8.50
2018-03-21T20:40:54.644Z,8.32
2018-03-21T20:43:22.693Z,8.35
2018-03-21T20:45:50.758Z,8.10
2018-03-21T20:48:18.822Z,7.65
2018-03-21T20:50:46.904Z,8.15
2018-03-21T20:53:15.018Z,8.55
2018-03-21T20:55:43.097Z,8.23
2018-03-21T20:58:11.162Z,7.62
2018-03-21T21:00:39.229Z,7.85
2018-03-21T21:03:07.320Z,7.80
2018-03-21T21:05:35.709Z,7.25
2018-03-21T21:08:03.760Z,7.22
2018-03-21T21:10:31.831Z,7.47
2018-03-21T21:12:59.868Z,7.68
2018-03-21T21:15:28.358Z,9.10
2018-03-21T21:17:56.424Z,9.68
2018-03-21T21:20:24.468Z,9.60
2018-03-21T21:22:52.508Z,8.30
2018-03-21T21:25:20.589Z,8.18
2018-03-21T21:27:48.712Z,8.30
2018-03-21T21:30:16.766Z,7.53
2018-03-21T21:32:45.598Z,8.05
2018-03-21T21:35:13.653Z,8.30
2018-03-21T21:37:41.727Z,7.85
2018-03-21T21:40:09.841Z,8.10
2018-03-21T21:42:37.912Z,6.95
2018-03-21T21:45:05.960Z,7.35
2018-03-21T21:47:34.049Z,6.70
2018-03-21T21:50:02.111Z,7.10
2018-03-21T21:52:30.169Z,6.60
2018-03-21T21:54:58.221Z,6.55
2018-03-21T21:57:26.267Z,6.65
2018-03-21T21:59:54.312Z,6.55
2018-03-21T22:02:23.203Z,6.00
2018-03-21T22:04:51.256Z,6.22
2018-03-21T22:07:19.321Z,5.95
2018-03-21T22:09:47.391Z,5.72
2018-03-21T22:12:20.928Z,6.40
2018-03-21T22:14:49.006Z,5.65
2018-03-21T22:17:17.073Z,6.25
2018-03-21T22:19:45.121Z,5.68
2018-03-21T22:22:13.152Z,6.12
2018-03-21T22:24:41.203Z,5.80
2018-03-21T22:27:10.049Z,6.12
2018-03-21T22:29:38.088Z,5.50
2018-03-21T22:32:06.146Z,5.18
2018-03-21T22:34:34.182Z,5.53
2018-03-21T22:37:02.218Z,5.53
2018-03-21T22:39:30.286Z,5.62
2018-03-21T22:41:58.330Z,5.35
2018-03-21T22:44:27.120Z,5.78
2018-03-21T22:46:55.163Z,5.18
2018-03-21T22:49:23.203Z,5.35
2018-03-21T22:51:51.292Z,5.40
2018-03-21T22:54:19.350Z,5.60
2018-03-21T22:56:47.404Z,5.72
2018-03-21T22:59:15.434Z,5.55
2018-03-21T23:01:44.274Z,5.28
2018-03-21T23:04:12.383Z,5.18
2018-03-21T23:06:40.428Z,5.15
2018-03-21T23:09:08.482Z,4.80
2018-03-21T23:11:36.522Z,5.37
2018-03-21T23:14:05.301Z,5.25
2018-03-21T23:16:33.346Z,5.40
2018-03-21T23:19:01.372Z,4.35
2018-03-21T23:21:29.462Z,4.72
2018-03-21T23:23:57.486Z,4.87
2018-03-21T23:26:25.509Z,4.72
2018-03-21T23:28:53.579Z,4.30
2018-03-21T23:31:21.727Z,4.90
2018-03-21T23:33:49.808Z,4.70
2018-03-21T23:36:17.871Z,4.95
2018-03-21T23:38:45.910Z,4.87
2018-03-21T23:41:13.958Z,4.65
2018-03-21T23:43:42.077Z,4.60
2018-03-21T23:46:10.139Z,4.70
2018-03-21T23:48:38.181Z,4.55
2018-03-21T23:51:06.222Z,4.90
2018-03-21T23:53:34.268Z,4.78
2018-03-21T23:56:03.087Z,4.65
2018-03-21T23:58:31.159Z,4.50
